KSMP

Stampede Pass Airport

Washington, USA
METAR KSMP 250500Z AUTO 17005KT 10SM BKN003 09/08 A3007 RMK AO2 T00940083
Observed Flight Rules
May-25 @ 05:00 UTC (30 minutes ago) Instrument Flight Rules
Wind Visibility Clouds
170° at 5 knots 10 miles
  • Broken at 300' AGL
Temperatures Readings
Current 9°C / 48°F
Dewpoint 8°C / 46°F
Humidity 94%
Altimeter 30.07" Hg
Pressure 1018 hPa
Elevation 1208
METAR KSMP 250500Z AUTO 17005KT 10SM BKN003 09/08 A3007 RMK AO2 T00940083
Observed Flight Rules
May-25 @ 05:00 UTC
(30 minutes ago)
LIFR
Wind Visibility
170° at 5 knots 10 miles
Clouds
  • Broken at 300' AGL
Temperature Dewpoint
9°C / 48°F 8°C / 46°F
Humidity Altimeter Pressure
94% 30.07" Hg 1018 hPa